Time;durP1;ratioP1;P1;durP2;ratioP2;P2;SDS_P1;SDS_P2;PMS_P1;PMS_P2;Temp;Humidity;BMP_temperature;BMP_pressure;BME280_temperature;BME280_humidity;BME280_pressure;Samples;Min_cycle;Max_cycle;Signal;HPM_P1;HPM_P2
2022/03/28 00:01:05;;;;;;;43.35;17.88;;;;;;;1.81;100.00;102144.38;4933286;28;20051;-75
2022/03/28 00:03:31;;;;;;;55.28;18.48;;;;;;;1.74;100.00;102139.41;4927090;29;20082;-77
2022/03/28 00:05:56;;;;;;;47.67;17.60;;;;;;;1.71;100.00;102147.53;4954593;28;20035;-75
2022/03/28 00:08:22;;;;;;;41.75;17.33;;;;;;;1.68;100.00;102145.06;4939493;28;20043;-76
2022/03/28 00:10:48;;;;;;;59.42;19.73;;;;;;;1.70;100.00;102140.53;4930497;29;20098;-75
2022/03/28 00:13:13;;;;;;;53.38;21.00;;;;;;;1.68;100.00;102123.84;4942866;28;20505;-76
2022/03/28 00:15:39;;;;;;;49.08;18.58;;;;;;;1.63;100.00;102125.88;4911916;29;20501;-75
2022/03/28 00:18:07;;;;;;;27.35;13.32;;;;;;;1.58;100.00;102111.19;4945183;28;20475;-76
2022/03/28 00:20:32;;;;;;;53.03;19.35;;;;;;;1.62;100.00;102118.88;4953849;28;20512;-75
2022/03/28 00:23:00;;;;;;;43.03;17.05;;;;;;;1.57;100.00;102122.72;4920005;28;20042;-75
2022/03/28 00:25:26;;;;;;;46.35;18.23;;;;;;;1.49;100.00;102123.16;4954468;28;20090;-75
2022/03/28 00:27:51;;;;;;;45.47;17.25;;;;;;;1.32;100.00;102108.13;4936922;28;20023;-75
2022/03/28 00:30:17;;;;;;;52.90;19.50;;;;;;;1.14;100.00;102094.13;4934447;29;20091;-75
2022/03/28 00:32:43;;;;;;;50.33;20.33;;;;;;;1.24;100.00;102108.56;4944170;28;20502;-74
2022/03/28 00:35:08;;;;;;;60.53;19.73;;;;;;;1.24;100.00;102107.69;4919939;28;20047;-75
2022/03/28 00:37:37;;;;;;;56.90;20.92;;;;;;;1.25;100.00;102098.84;4923368;28;20039;-74
2022/03/28 00:40:05;;;;;;;50.60;16.88;;;;;;;1.13;100.00;102076.50;4923943;28;20090;-75
2022/03/28 00:42:31;;;;;;;52.88;20.38;;;;;;;1.37;100.00;102098.16;4949635;28;20153;-74
2022/03/28 00:45:04;;;;;;;47.25;17.60;;;;;;;1.38;100.00;102096.38;4932667;28;20130;-75
2022/03/28 00:47:30;;;;;;;46.53;16.92;;;;;;;1.31;100.00;102102.00;4952321;28;20039;-75
2022/03/28 00:49:56;;;;;;;45.70;17.58;;;;;;;1.17;100.00;102101.03;4922842;28;20038;-75
2022/03/28 00:52:22;;;;;;;42.08;16.38;;;;;;;1.02;100.00;102097.41;4923858;28;20465;-74
2022/03/28 00:54:48;;;;;;;44.08;16.33;;;;;;;0.91;100.00;102089.19;4919637;29;20045;-74
2022/03/28 00:57:14;;;;;;;41.40;16.02;;;;;;;0.94;100.00;102099.59;4919581;28;20038;-74
2022/03/28 00:59:39;;;;;;;47.95;16.08;;;;;;;0.91;100.00;102083.88;4922657;28;20035;-75
2022/03/28 01:02:06;;;;;;;42.30;16.20;;;;;;;0.79;100.00;102067.69;4926180;28;20044;-75
2022/03/28 01:04:33;;;;;;;49.13;16.77;;;;;;;0.92;100.00;102085.59;4953253;28;20498;-75
2022/03/28 01:06:59;;;;;;;43.60;16.58;;;;;;;0.94;100.00;102081.06;4928114;28;20062;-75
2022/03/28 01:09:24;;;;;;;34.22;14.57;;;;;;;1.00;100.00;102083.38;4921839;29;20074;-76
2022/03/28 01:11:51;;;;;;;44.17;17.15;;;;;;;1.09;100.00;102078.47;4960000;28;20126;-75
2022/03/28 01:14:19;;;;;;;44.95;17.90;;;;;;;1.04;100.00;102071.69;4935911;29;20157;-75
2022/03/28 01:19:29;;;;;;;40.20;15.63;;;;;;;0.89;100.00;102078.66;4935500;28;20483;-75
2022/03/28 01:21:55;;;;;;;37.75;14.95;;;;;;;0.80;100.00;102074.69;4934441;28;20038;-74
2022/03/28 01:24:20;;;;;;;41.50;15.27;;;;;;;0.73;100.00;102070.66;4924634;28;20035;-74
2022/03/28 01:26:46;;;;;;;37.55;15.10;;;;;;;0.69;100.00;102071.78;4921276;29;20039;-74
2022/03/28 01:29:15;;;;;;;43.45;15.00;;;;;;;0.62;100.00;102063.28;4949616;28;20031;-76
2022/03/28 01:31:41;;;;;;;55.83;20.13;;;;;;;0.69;100.00;102066.47;4954514;28;20173;-74
2022/03/28 01:34:07;;;;;;;45.38;14.65;;;;;;;0.71;100.00;102061.94;4929719;28;20538;-75
2022/03/28 01:36:32;;;;;;;36.80;13.88;;;;;;;0.75;100.00;102055.56;4941986;28;20052;-75
2022/03/28 01:38:58;;;;;;;48.90;17.17;;;;;;;0.80;100.00;102055.31;4948931;28;20118;-75
2022/03/28 01:41:24;;;;;;;48.35;16.08;;;;;;;0.83;100.00;102050.72;4921724;29;20027;-75
2022/03/28 01:43:50;;;;;;;45.15;16.88;;;;;;;0.83;100.00;102045.41;4956138;28;20565;-75
2022/03/28 01:46:16;;;;;;;57.08;17.75;;;;;;;0.84;100.00;102040.97;4926220;28;20389;-74
2022/03/28 01:48:41;;;;;;;53.15;16.90;;;;;;;0.88;100.00;102027.50;4915287;29;20043;-74
2022/03/28 01:51:07;;;;;;;54.97;14.02;;;;;;;0.96;100.00;102029.72;4916907;28;20387;-74
2022/03/28 01:53:33;;;;;;;43.92;16.42;;;;;;;1.08;100.00;102034.34;4917716;29;20043;-75
2022/03/28 01:55:58;;;;;;;44.72;15.20;;;;;;;1.08;100.00;102037.00;4949142;28;20479;-74
2022/03/28 01:58:24;;;;;;;53.63;16.63;;;;;;;1.00;100.00;102036.56;4932037;29;20174;-74
2022/03/28 02:00:49;;;;;;;53.55;17.58;;;;;;;0.94;100.00;102036.03;4919181;28;20058;-75
2022/03/28 02:03:15;;;;;;;52.97;18.40;;;;;;;0.84;100.00;102025.06;4952324;28;20110;-75
2022/03/28 02:05:41;;;;;;;52.55;15.95;;;;;;;0.78;100.00;102026.25;4933421;29;20050;-75
2022/03/28 02:08:08;;;;;;;42.30;16.67;;;;;;;0.75;100.00;102021.13;4941434;28;20366;-75
2022/03/28 02:10:33;;;;;;;52.65;16.65;;;;;;;0.62;100.00;102020.94;4918018;29;20039;-75
2022/03/28 02:12:59;;;;;;;60.83;18.67;;;;;;;0.59;100.00;102007.84;4941340;28;21745;-75
2022/03/28 02:15:25;;;;;;;40.55;16.42;;;;;;;0.58;100.00;102002.63;4958790;28;20394;-75
2022/03/28 02:17:50;;;;;;;49.88;16.20;;;;;;;0.55;100.00;102006.28;4953441;28;20043;-75
2022/03/28 02:20:17;;;;;;;45.22;14.90;;;;;;;0.55;100.00;102008.94;4922793;29;20050;-74
2022/03/28 02:22:44;;;;;;;49.83;17.08;;;;;;;0.43;100.00;101999.88;4931432;29;20122;-74
2022/03/28 02:25:11;;;;;;;64.70;17.92;;;;;;;0.38;100.00;102001.88;4936580;28;20043;-75
2022/03/28 02:27:37;;;;;;;49.53;15.38;;;;;;;0.43;100.00;101999.88;4951312;28;20071;-74
2022/03/28 02:30:06;;;;;;;63.08;18.17;;;;;;;0.51;100.00;101977.44;4948119;28;20050;-74
2022/03/28 02:32:32;;;;;;;74.38;20.55;;;;;;;0.62;100.00;101981.22;4948334;28;20054;-74
2022/03/28 02:34:57;;;;;;;62.90;17.70;;;;;;;0.65;100.00;101982.84;4926395;28;20039;-74
2022/03/28 02:37:23;;;;;;;72.97;20.02;;;;;;;0.67;100.00;101980.97;4955193;28;20510;-75
2022/03/28 02:39:49;;;;;;;69.15;20.10;;;;;;;0.72;100.00;101975.44;4964684;28;20027;-76
2022/03/28 02:42:14;;;;;;;74.88;19.75;;;;;;;0.80;100.00;101963.50;4931858;29;20403;-74
2022/03/28 02:44:40;;;;;;;73.57;19.55;;;;;;;0.90;100.00;101978.88;4954012;28;20078;-75
2022/03/28 02:47:06;;;;;;;52.33;16.63;;;;;;;0.90;100.00;101970.94;4923232;28;20376;-75
2022/03/28 02:49:32;;;;;;;73.65;19.30;;;;;;;1.00;100.00;101970.34;4935402;29;20039;-74
2022/03/28 02:52:00;;;;;;;71.75;21.75;;;;;;;1.02;100.00;101967.63;4931883;28;20490;-76
2022/03/28 02:54:25;;;;;;;49.80;16.35;;;;;;;1.10;100.00;101968.06;4948527;28;20082;-75
2022/03/28 02:56:51;;;;;;;65.60;20.63;;;;;;;1.18;100.00;101970.28;4952392;28;20029;-75
2022/03/28 02:59:17;;;;;;;82.15;22.55;;;;;;;1.07;100.00;101942.59;4936397;29;20363;-74
2022/03/28 03:01:45;;;;;;;79.78;20.52;;;;;;;1.13;100.00;101956.44;4957937;28;20034;-74
2022/03/28 03:04:10;;;;;;;70.45;20.77;;;;;;;1.02;100.00;101949.09;4952624;28;20038;-74
2022/03/28 03:06:36;;;;;;;84.75;20.55;;;;;;;1.01;100.00;101945.59;4923930;29;20095;-75
2022/03/28 03:09:02;;;;;;;77.13;22.02;;;;;;;1.00;100.00;101941.22;4922734;28;20422;-74
2022/03/28 03:11:27;;;;;;;75.28;23.27;;;;;;;1.03;100.00;101941.06;4940448;28;20047;-74
2022/03/28 03:13:56;;;;;;;82.32;21.70;;;;;;;0.97;100.00;101929.94;4945326;28;20502;-74
2022/03/28 03:16:22;;;;;;;64.03;19.55;;;;;;;1.02;100.00;101927.91;4948147;28;20047;-76
2022/03/28 03:18:47;;;;;;;79.35;21.33;;;;;;;1.10;100.00;101925.66;4958433;28;20562;-74
2022/03/28 03:21:13;;;;;;;85.25;23.67;;;;;;;1.11;100.00;101911.47;4949871;28;20042;-74
2022/03/28 03:23:39;;;;;;;71.47;21.05;;;;;;;1.10;100.00;101909.78;4948947;28;20479;-75
2022/03/28 03:26:04;;;;;;;65.80;19.05;;;;;;;1.13;100.00;101917.53;4955849;28;20046;-74
2022/03/28 03:28:30;;;;;;;43.03;16.48;;;;;;;1.14;100.00;101889.25;4948017;28;20165;-75
2022/03/28 03:30:55;;;;;;;81.57;22.63;;;;;;;1.46;100.00;101921.88;4950955;28;20420;-75
2022/03/28 03:33:24;;;;;;;63.88;18.75;;;;;;;1.48;100.00;101912.03;4943265;29;20054;-74
2022/03/28 03:35:49;;;;;;;66.13;18.63;;;;;;;1.39;100.00;101891.38;4923561;28;20059;-75
2022/03/28 03:38:15;;;;;;;52.95;17.30;;;;;;;1.42;100.00;101910.59;4934002;28;20042;-75
2022/03/28 03:40:43;;;;;;;55.00;16.58;;;;;;;1.28;100.00;101903.44;4947235;28;20027;-74
2022/03/28 03:43:09;;;;;;;71.45;16.48;;;;;;;1.31;100.00;101908.56;4946915;28;20035;-76
2022/03/28 03:45:36;;;;;;;54.95;16.77;;;;;;;1.43;100.00;101907.00;4919512;29;20039;-74
2022/03/28 03:48:01;;;;;;;58.78;16.00;;;;;;;1.37;100.00;101901.19;4947538;28;20591;-75
2022/03/28 03:50:27;;;;;;;23.73;9.70;;;;;;;1.46;100.00;101893.56;4934645;29;20027;-74
2022/03/28 03:52:54;;;;;;;33.55;12.35;;;;;;;1.64;100.00;101896.09;4924112;28;20047;-75
2022/03/28 03:55:20;;;;;;;48.97;15.82;;;;;;;1.73;100.00;101899.06;4948738;28;20066;-76
2022/03/28 03:57:46;;;;;;;46.55;16.08;;;;;;;1.78;100.00;101895.28;4949014;28;20063;-75
2022/03/28 04:00:13;;;;;;;46.10;16.15;;;;;;;1.71;100.00;101892.97;4948703;28;20085;-75
2022/03/28 04:02:38;;;;;;;41.42;14.90;;;;;;;1.60;100.00;101903.38;4936814;29;20479;-74
2022/03/28 04:05:05;;;;;;;30.70;12.90;;;;;;;1.46;100.00;101898.03;4939786;28;20031;-75
2022/03/28 04:07:31;;;;;;;36.42;14.88;;;;;;;1.57;100.00;101898.25;4952856;28;20508;-74
2022/03/28 04:09:59;;;;;;;20.45;8.25;;;;;;;1.71;100.00;101895.63;4953537;28;20035;-74
2022/03/28 04:12:25;;;;;;;35.75;13.68;;;;;;;1.63;100.00;101873.19;4951665;28;20494;-76
2022/03/28 04:14:51;;;;;;;45.67;16.25;;;;;;;1.82;100.00;101888.84;4932045;28;20026;-74
2022/03/28 04:17:16;;;;;;;35.03;13.30;;;;;;;1.89;100.00;101879.59;4921993;29;20394;-75
2022/03/28 04:19:42;;;;;;;35.47;15.02;;;;;;;2.09;100.00;101889.84;4914326;29;20050;-75
2022/03/28 04:22:07;;;;;;;41.35;13.68;;;;;;;2.14;100.00;101886.91;4963148;28;20032;-74
2022/03/28 04:24:33;;;;;;;19.20;9.40;;;;;;;2.04;100.00;101886.63;4934474;29;20043;-75
2022/03/28 04:26:59;;;;;;;38.67;13.27;;;;;;;1.88;100.00;101860.16;4919982;28;20125;-76
2022/03/28 04:29:24;;;;;;;30.92;11.90;;;;;;;1.88;100.00;101867.25;4944354;28;20039;-76
2022/03/28 04:31:50;;;;;;;38.92;14.02;;;;;;;1.90;100.00;101882.13;4954429;28;20522;-75
2022/03/28 04:34:16;;;;;;;27.80;13.18;;;;;;;1.88;100.00;101873.44;4918677;28;20034;-75
2022/03/28 04:36:42;;;;;;;36.42;13.25;;;;;;;1.90;100.00;101871.50;4953716;28;20027;-74
2022/03/28 04:39:07;;;;;;;38.80;13.68;;;;;;;1.88;100.00;101868.13;4931264;28;20407;-76
2022/03/28 04:41:33;;;;;;;38.17;12.38;;;;;;;1.78;100.00;101872.28;4942290;28;20039;-75
2022/03/28 04:43:59;;;;;;;33.85;13.85;;;;;;;1.65;100.00;101858.88;4934309;28;20047;-75
2022/03/28 04:46:25;;;;;;;29.08;13.50;;;;;;;1.68;100.00;101861.34;4940579;28;20039;-74
2022/03/28 04:48:50;;;;;;;37.50;12.93;;;;;;;1.89;100.00;101869.81;4930222;28;20053;-75
2022/03/28 04:51:16;;;;;;;29.95;13.88;;;;;;;1.90;100.00;101860.06;4941279;28;20113;-75
2022/03/28 04:53:42;;;;;;;32.85;12.45;;;;;;;1.87;100.00;101865.56;4921406;29;20045;-76
2022/03/28 04:56:08;;;;;;;33.70;12.75;;;;;;;1.78;100.00;101859.00;4970772;28;20047;-76
2022/03/28 04:58:33;;;;;;;34.80;12.95;;;;;;;1.62;100.00;101859.06;4913080;29;20039;-75
2022/03/28 05:00:59;;;;;;;36.17;13.68;;;;;;;1.65;100.00;101858.88;4937447;28;20046;-77
2022/03/28 05:03:24;;;;;;;31.15;12.00;;;;;;;1.61;100.00;101857.34;4947744;28;20030;-74
2022/03/28 05:05:50;;;;;;;25.50;12.43;;;;;;;1.51;100.00;101856.22;4936626;28;20039;-76
2022/03/28 05:08:16;;;;;;;30.40;11.05;;;;;;;1.38;100.00;101850.78;4921680;28;20046;-75
2022/03/28 05:10:41;;;;;;;33.97;12.18;;;;;;;1.39;100.00;101848.97;4931976;29;20039;-75
2022/03/28 05:13:07;;;;;;;29.15;12.73;;;;;;;1.43;100.00;101848.72;4934029;28;20175;-74
2022/03/28 05:15:33;;;;;;;35.20;13.45;;;;;;;1.36;100.00;101838.56;4917820;29;20042;-76
2022/03/28 05:17:58;;;;;;;27.83;11.30;;;;;;;1.33;100.00;101846.69;4948360;28;20039;-75
2022/03/28 05:20:24;;;;;;;29.48;11.88;;;;;;;1.25;100.00;101839.19;4947201;28;20137;-74
2022/03/28 05:22:49;;;;;;;31.33;11.50;;;;;;;1.26;100.00;101841.72;4919248;28;20466;-78
2022/03/28 05:25:15;;;;;;;31.60;12.98;;;;;;;1.24;100.00;101833.00;4950413;28;20035;-76
2022/03/28 05:27:45;;;;;;;32.17;12.10;;;;;;;1.28;100.00;101828.41;4948630;28;20045;-77
2022/03/28 05:30:11;;;;;;;26.90;12.15;;;;;;;1.24;100.00;101816.25;4934499;28;20553;-76
2022/03/28 05:32:37;;;;;;;26.80;11.93;;;;;;;1.41;100.00;101831.19;4936104;29;20050;-77
2022/03/28 05:35:04;;;;;;;26.92;11.88;;;;;;;1.36;100.00;101810.25;4950801;28;20027;-75
2022/03/28 05:37:30;;;;;;;25.95;10.85;;;;;;;1.50;100.00;101827.97;4949494;28;20035;-75
2022/03/28 05:39:55;;;;;;;30.70;12.57;;;;;;;1.52;100.00;101831.41;4936918;28;20035;-75
2022/03/28 05:42:21;;;;;;;28.40;12.40;;;;;;;1.35;100.00;101823.56;4924077;28;20035;-76
2022/03/28 05:44:47;;;;;;;26.92;12.10;;;;;;;1.28;100.00;101828.41;4922444;29;20041;-76
2022/03/28 05:47:12;;;;;;;28.88;12.82;;;;;;;1.25;100.00;101831.22;4931104;28;20102;-75
2022/03/28 05:49:40;;;;;;;35.10;13.45;;;;;;;1.17;100.00;101826.38;4947791;28;20137;-76
2022/03/28 05:52:06;;;;;;;31.48;11.45;;;;;;;1.16;100.00;101829.94;4947202;28;20499;-76
2022/03/28 05:54:32;;;;;;;24.27;11.00;;;;;;;1.11;100.00;101826.72;4954484;28;20043;-75
2022/03/28 05:56:58;;;;;;;31.92;13.02;;;;;;;1.17;100.00;101836.97;4943634;28;20094;-76
2022/03/28 05:59:24;;;;;;;27.15;12.07;;;;;;;1.04;100.00;101836.81;4941474;28;20027;-75
2022/03/28 06:01:49;;;;;;;31.77;11.90;;;;;;;0.88;100.00;101823.59;4925378;28;20411;-75
2022/03/28 06:04:15;;;;;;;29.73;12.00;;;;;;;0.80;100.00;101828.47;4925477;28;20122;-75
2022/03/28 06:06:41;;;;;;;31.52;12.00;;;;;;;0.80;100.00;101836.41;4942366;28;20078;-75
2022/03/28 06:09:08;;;;;;;32.72;12.30;;;;;;;0.76;100.00;101826.94;4941491;28;20142;-75
2022/03/28 06:11:34;;;;;;;30.10;11.13;;;;;;;0.80;100.00;101833.78;4943796;28;20031;-75
2022/03/28 06:14:04;;;;;;;33.92;13.40;;;;;;;0.93;100.00;101830.41;4958516;28;20038;-76
2022/03/28 06:16:29;;;;;;;23.80;10.18;;;;;;;0.85;100.00;101813.19;4945170;28;20086;-75
2022/03/28 06:18:55;;;;;;;29.58;12.00;;;;;;;0.99;100.00;101830.09;4943871;28;20035;-75
2022/03/28 06:21:21;;;;;;;30.35;10.55;;;;;;;0.99;100.00;101830.94;4922794;29;20050;-76
2022/03/28 06:23:47;;;;;;;31.02;12.77;;;;;;;1.22;100.00;101829.63;4940571;28;20409;-75
2022/03/28 06:26:12;;;;;;;30.17;11.48;;;;;;;1.28;100.00;101810.69;4937347;28;20478;-75
2022/03/28 06:28:40;;;;;;;28.25;12.00;;;;;;;1.39;100.00;101812.72;4944539;28;20039;-76
2022/03/28 06:31:06;;;;;;;27.33;10.93;;;;;;;1.61;100.00;101814.94;4944847;28;20063;-76
2022/03/28 06:33:32;;;;;;;30.20;11.75;;;;;;;1.77;100.00;101817.50;4939132;28;20190;-75
2022/03/28 06:35:58;;;;;;;29.90;11.40;;;;;;;1.75;100.00;101814.13;4926004;28;20134;-76
2022/03/28 06:38:23;;;;;;;31.45;11.55;;;;;;;1.71;100.00;101821.38;4945642;28;20271;-75
2022/03/28 06:40:49;;;;;;;29.50;13.00;;;;;;;1.56;100.00;101801.09;4916587;29;20070;-75
2022/03/28 06:43:15;;;;;;;34.88;12.38;;;;;;;1.63;100.00;101810.41;4941206;28;20031;-75
2022/03/28 06:45:40;;;;;;;30.83;12.35;;;;;;;1.65;100.00;101815.63;4909141;29;20629;-76
2022/03/28 06:48:06;;;;;;;35.70;13.43;;;;;;;1.77;100.00;101817.50;4951255;28;20528;-75
2022/03/28 06:50:34;;;;;;;31.27;10.98;;;;;;;1.87;100.00;101818.66;4924833;29;20553;-75
2022/03/28 06:53:00;;;;;;;28.67;11.25;;;;;;;2.09;100.00;101815.56;4967094;28;20031;-75
2022/03/28 06:55:26;;;;;;;31.60;11.50;;;;;;;2.37;100.00;101821.78;4920669;29;20047;-76
2022/03/28 06:57:52;;;;;;;32.40;13.00;;;;;;;2.49;100.00;101823.69;4952449;28;20463;-75
2022/03/28 07:00:17;;;;;;;33.95;12.93;;;;;;;2.64;100.00;101817.38;4925872;29;20062;-75
2022/03/28 07:02:43;;;;;;;29.30;12.50;;;;;;;2.78;100.00;101818.28;4950136;28;20072;-75
2022/03/28 07:05:09;;;;;;;34.58;13.15;;;;;;;2.89;100.00;101818.47;4922098;28;20035;-75
2022/03/28 07:07:39;;;;;;;32.28;12.80;;;;;;;2.96;100.00;101806.47;4922351;29;20058;-76
2022/03/28 07:10:06;;;;;;;32.78;12.57;;;;;;;3.11;100.00;101811.72;4956009;28;20122;-75
2022/03/28 07:12:31;;;;;;;29.95;12.52;;;;;;;3.35;100.00;101822.53;4951815;28;20042;-77
2022/03/28 07:14:57;;;;;;;30.05;12.85;;;;;;;3.51;100.00;101823.19;4925848;28;20051;-75
2022/03/28 07:17:22;;;;;;;27.73;11.77;;;;;;;3.59;100.00;101817.34;4947945;28;20407;-76
2022/03/28 07:19:48;;;;;;;36.50;12.38;;;;;;;3.66;100.00;101805.34;4933592;29;21272;-77
2022/03/28 07:22:14;;;;;;;31.70;12.23;;;;;;;3.78;100.00;101793.84;4933909;29;20077;-74
2022/03/28 07:24:39;;;;;;;36.70;13.93;;;;;;;4.12;100.00;101818.13;4952308;28;20116;-78
2022/03/28 07:27:05;;;;;;;37.35;14.20;;;;;;;4.23;100.00;101815.53;4949075;28;20364;-78
2022/03/28 07:29:31;;;;;;;39.67;14.25;;;;;;;4.53;100.00;101809.00;4932379;29;20046;-74
2022/03/28 07:31:57;;;;;;;34.50;14.65;;;;;;;5.10;100.00;101819.00;4916848;28;20118;-76
2022/03/28 07:34:41;;;;;;;38.08;16.05;;;;;;;5.60;100.00;101817.00;4953582;28;20034;-74
2022/03/28 07:37:06;;;;;;;38.15;15.10;;;;;;;5.94;100.00;101809.09;4963382;28;20093;-77
2022/03/28 07:39:34;;;;;;;39.65;14.55;;;;;;;6.30;100.00;101823.19;4931900;29;20035;-77
2022/03/28 07:42:00;;;;;;;38.22;15.20;;;;;;;7.29;100.00;101821.38;4949770;28;20490;-74
2022/03/28 07:44:26;;;;;;;35.72;15.73;;;;;;;8.31;99.43;101817.91;4946743;28;20039;-76
2022/03/28 07:46:52;;;;;;;34.50;14.05;;;;;;;9.05;96.50;101811.34;4948027;28;20039;-77
2022/03/28 07:49:17;;;;;;;33.90;13.88;;;;;;;9.70;93.89;101814.25;4947713;28;20031;-76
2022/03/28 07:51:43;;;;;;;28.25;14.00;;;;;;;10.22;91.21;101813.84;4931891;29;20399;-76
2022/03/28 07:54:09;;;;;;;28.98;13.48;;;;;;;10.76;89.14;101817.53;4947221;28;20113;-76
2022/03/28 07:56:35;;;;;;;28.77;12.55;;;;;;;11.32;87.26;101813.72;4933704;29;20043;-77
2022/03/28 07:59:01;;;;;;;25.75;12.68;;;;;;;11.81;85.97;101808.72;4933947;28;20042;-76
2022/03/28 08:01:27;;;;;;;30.00;13.55;;;;;;;12.33;83.73;101815.94;4934434;29;20038;-77
2022/03/28 08:03:53;;;;;;;27.38;13.18;;;;;;;12.93;81.36;101804.19;4945172;28;20035;-76
2022/03/28 08:06:18;;;;;;;28.20;12.52;;;;;;;13.56;79.40;101806.28;4965741;28;20364;-76
2022/03/28 08:08:44;;;;;;;26.20;12.20;;;;;;;14.19;76.91;101810.06;4919988;29;20379;-77
2022/03/28 08:11:10;;;;;;;23.20;12.45;;;;;;;14.80;74.96;101804.91;4918051;28;20126;-76
2022/03/28 08:13:36;;;;;;;21.75;10.77;;;;;;;14.87;72.67;101810.44;4931081;29;20065;-76
2022/03/28 08:16:03;;;;;;;23.10;12.02;;;;;;;14.79;72.49;101792.41;4923251;28;20043;-76
2022/03/28 08:18:29;;;;;;;22.35;11.68;;;;;;;14.77;71.25;101802.56;4934258;29;20041;-76
2022/03/28 08:20:55;;;;;;;53.78;12.75;;;;;;;14.67;69.78;101791.97;4934639;28;20035;-76
2022/03/28 08:23:22;;;;;;;24.40;11.77;;;;;;;14.43;69.45;101787.47;4962676;28;20042;-76
2022/03/28 08:25:48;;;;;;;21.23;10.65;;;;;;;14.41;69.08;101786.81;4953731;28;20094;-76
2022/03/28 08:28:14;;;;;;;22.80;9.80;;;;;;;14.56;70.39;101783.41;4938984;29;20049;-76
2022/03/28 08:30:40;;;;;;;18.90;10.95;;;;;;;14.76;68.89;101797.31;4944871;28;20050;-77
2022/03/28 08:33:06;;;;;;;16.20;9.43;;;;;;;14.95;68.01;101788.72;4917656;29;20038;-76
2022/03/28 08:35:31;;;;;;;24.02;11.75;;;;;;;15.24;69.00;101785.34;4950805;29;20118;-76
2022/03/28 08:37:58;;;;;;;19.58;11.63;;;;;;;15.90;68.30;101788.28;4916696;29;20498;-77
2022/03/28 08:40:23;;;;;;;19.25;10.65;;;;;;;16.51;65.03;101787.22;4933230;29;20039;-76
2022/03/28 08:42:55;;;;;;;24.88;10.98;;;;;;;16.65;62.18;101789.94;4917385;29;20126;-76
2022/03/28 08:45:20;;;;;;;22.13;11.43;;;;;;;16.81;62.06;101774.47;4964455;28;20074;-77
2022/03/28 08:47:48;;;;;;;21.73;11.50;;;;;;;17.05;58.36;101781.41;4950977;28;20074;-76
2022/03/28 08:50:15;;;;;;;22.30;11.85;;;;;;;17.19;59.50;101766.91;4934921;29;20090;-78
2022/03/28 08:52:41;;;;;;;21.25;10.85;;;;;;;17.57;59.72;101762.00;4934932;29;20042;-79
2022/03/28 08:55:12;;;;;;;18.30;9.90;;;;;;;17.94;56.98;101775.44;4937740;28;20039;-79
2022/03/28 08:57:38;;;;;;;18.98;10.88;;;;;;;18.02;56.25;101783.47;4950628;29;20034;-79
2022/03/28 09:00:05;;;;;;;20.02;11.43;;;;;;;18.45;57.81;101772.38;4941663;28;20023;-79
2022/03/28 09:02:53;;;;;;;19.73;11.35;;;;;;;19.00;55.08;101761.44;4919611;29;20031;-79
2022/03/28 09:05:31;;;;;;;19.98;10.80;;;;;;;19.49;53.54;101769.25;4932789;29;20039;-80
2022/03/28 09:07:58;;;;;;;17.98;10.10;;;;;;;19.45;50.25;101753.50;4919994;29;20101;-79
2022/03/28 09:10:27;;;;;;;16.67;9.10;;;;;;;19.38;48.70;101763.59;4944067;28;20049;-79
2022/03/28 09:13:09;;;;;;;13.38;7.78;;;;;;;19.27;48.54;101765.06;4944710;28;20369;-79
2022/03/28 09:15:48;;;;;;;17.48;9.82;;;;;;;19.36;49.82;101761.06;4943511;29;20031;-79
2022/03/28 09:18:26;;;;;;;20.75;10.75;;;;;;;19.74;49.12;101768.63;4935203;29;20027;-79
2022/03/28 09:20:56;;;;;;;20.27;10.75;;;;;;;20.05;49.63;101759.72;4963615;28;20035;-79
2022/03/28 09:23:49;;;;;;;22.20;10.73;;;;;;;20.41;48.99;101763.81;4935729;29;20027;-79
2022/03/28 09:26:21;;;;;;;22.08;11.45;;;;;;;20.75;47.36;101751.72;4935466;29;20116;-78
2022/03/28 09:28:56;;;;;;;20.65;11.18;;;;;;;21.36;46.71;101752.94;4920143;29;20035;-79
2022/03/28 09:31:24;;;;;;;21.33;11.50;;;;;;;21.75;45.28;101750.91;4954627;28;20028;-79
2022/03/28 09:33:58;;;;;;;22.08;12.15;;;;;;;21.96;42.11;101744.16;4936538;29;20082;-78
2022/03/28 09:36:49;;;;;;;19.92;11.27;;;;;;;22.08;44.28;101753.31;4924371;29;20046;-79
2022/03/28 09:39:21;;;;;;;20.65;10.20;;;;;;;22.39;42.37;101751.50;4944918;29;20035;-75
2022/03/28 09:42:01;;;;;;;21.63;11.63;;;;;;;22.43;41.79;101752.69;4949286;29;20043;-76
2022/03/28 09:44:33;;;;;;;19.02;11.07;;;;;;;22.60;40.61;101744.69;4929412;29;20031;-76
2022/03/28 09:47:16;;;;;;;18.00;9.50;;;;;;;22.37;38.54;101738.03;4915523;29;20126;-77
2022/03/28 09:49:43;;;;;;;20.33;10.32;;;;;;;21.88;39.40;101733.53;4942220;28;20030;-76
2022/03/28 09:52:11;;;;;;;21.05;12.88;;;;;;;21.59;41.47;101738.66;4912379;28;20360;-76
2022/03/28 09:55:12;;;;;;;23.10;12.20;;;;;;;22.02;41.72;101743.28;4947929;28;20031;-77
2022/03/28 09:57:38;;;;;;;19.25;11.15;;;;;;;22.85;41.53;101743.69;4949075;28;20095;-76
2022/03/28 10:00:22;;;;;;;23.27;12.18;;;;;;;23.52;37.94;101736.06;4924014;29;20047;-76
2022/03/28 10:02:49;;;;;;;21.52;11.60;;;;;;;23.86;37.78;101747.31;4949220;28;20031;-77
2022/03/28 10:05:17;;;;;;;24.40;12.57;;;;;;;24.29;37.87;101729.53;4952567;28;20031;-76
2022/03/28 10:07:46;;;;;;;24.80;12.82;;;;;;;24.78;36.45;101738.22;4956795;28;20069;-76
2022/03/28 10:10:14;;;;;;;20.67;13.30;;;;;;;25.35;35.34;101732.63;4916660;29;20058;-75
2022/03/28 10:12:40;;;;;;;22.33;12.98;;;;;;;25.08;34.04;101728.84;4923115;28;20034;-76
2022/03/28 10:15:06;;;;;;;23.60;11.25;;;;;;;24.97;33.23;101714.06;4920989;29;20035;-76
2022/03/28 10:17:32;;;;;;;20.17;9.80;;;;;;;24.33;33.20;101731.56;4948839;28;20091;-77
2022/03/28 10:19:58;;;;;;;25.50;13.88;;;;;;;23.85;36.03;101723.69;4928772;29;20028;-78
2022/03/28 10:22:36;;;;;;;23.05;12.82;;;;;;;24.30;35.22;101714.75;4946609;28;20046;-77
2022/03/28 10:25:08;;;;;;;20.08;10.93;;;;;;;24.87;32.31;101706.47;4952130;28;20095;-74
2022/03/28 10:27:34;;;;;;;24.15;11.70;;;;;;;24.68;32.63;101716.03;4947804;28;20031;-77
2022/03/28 10:30:24;;;;;;;28.50;13.85;;;;;;;24.28;34.01;101709.47;4919474;29;20035;-76
2022/03/28 10:33:11;;;;;;;25.40;13.00;;;;;;;24.80;32.21;101705.81;4936217;29;20713;-76
2022/03/28 10:35:38;;;;;;;24.35;12.15;;;;;;;24.81;33.80;101710.22;4936524;29;20050;-76
2022/03/28 10:38:14;;;;;;;25.52;14.13;;;;;;;25.17;33.22;101703.44;4936171;29;20046;-74
2022/03/28 10:41:00;;;;;;;26.95;14.77;;;;;;;25.64;31.31;101696.69;4943241;28;20041;-76
2022/03/28 10:43:29;;;;;;;27.90;14.27;;;;;;;26.14;30.94;101700.41;4920591;29;20031;-75
2022/03/28 10:45:59;;;;;;;30.83;14.55;;;;;;;26.64;29.76;101683.59;4921474;29;20047;-74
2022/03/28 10:48:41;;;;;;;27.55;13.80;;;;;;;27.00;28.51;101689.47;4947002;29;20046;-77
2022/03/28 10:51:17;;;;;;;27.67;14.10;;;;;;;27.27;27.86;101686.66;4944803;28;20035;-75
2022/03/28 10:53:53;;;;;;;27.92;13.35;;;;;;;26.81;28.63;101682.69;4952806;28;20103;-75
2022/03/28 10:56:26;;;;;;;26.63;13.57;;;;;;;26.59;29.60;101677.22;4949980;28;20479;-74
2022/03/28 10:59:11;;;;;;;;;;;;;;;26.74;29.52;101678.19;4923073;28;20035;-74
2022/03/28 11:01:43;;;;;;;29.23;14.48;;;;;;;26.94;28.76;101668.44;4945427;29;19918;-75
2022/03/28 11:04:12;;;;;;;27.65;13.07;;;;;;;27.40;29.07;101666.03;4919136;29;20041;-74
2022/03/28 11:07:05;;;;;;;27.30;13.75;;;;;;;27.37;27.95;101664.63;4951694;29;20043;-75
2022/03/28 11:09:45;;;;;;;30.58;14.23;;;;;;;27.80;27.25;101665.44;4968203;28;20039;-75
2022/03/28 11:12:14;;;;;;;24.95;13.50;;;;;;;27.39;27.87;101656.09;4947230;29;20054;-76
2022/03/28 11:14:44;;;;;;;29.25;15.13;;;;;;;27.31;27.67;101649.13;4920390;29;20201;-76